Time;durP1;ratioP1;P1;durP2;ratioP2;P2;SDS_P1;SDS_P2;PMS_P1;PMS_P2;Temp;Humidity;BMP_temperature;BMP_pressure;BME280_temperature;BME280_humidity;BME280_pressure;Samples;Min_cycle;Max_cycle;Signal;HPM_P1;HPM_P2
2021/01/01 00:00:48;;;;;;;7.93;5.00;;;;;;;4.38;100.00;96868.69;5011609;28;20678;-75
2021/01/01 00:03:15;;;;;;;11.77;5.83;;;;;;;4.45;100.00;96870.38;5015881;28;20581;-77
2021/01/01 00:05:43;;;;;;;8.70;4.90;;;;;;;4.53;100.00;96870.22;5014394;28;20207;-74
2021/01/01 00:08:10;;;;;;;9.63;6.07;;;;;;;4.60;100.00;96863.19;5014599;28;20233;-75
2021/01/01 00:10:38;;;;;;;10.83;5.80;;;;;;;4.64;100.00;96868.88;5013164;28;20213;-79
2021/01/01 00:13:05;;;;;;;12.27;5.37;;;;;;;4.59;100.00;96858.06;5020826;28;20238;-79
2021/01/01 00:15:32;;;;;;;11.37;5.53;;;;;;;4.58;100.00;96859.09;5026048;28;20258;-80
2021/01/01 00:17:59;;;;;;;11.90;6.20;;;;;;;4.60;100.00;96855.25;5020272;28;20240;-75
2021/01/01 00:20:26;;;;;;;8.97;4.97;;;;;;;4.58;100.00;96851.97;5013043;28;20212;-73
2021/01/01 00:22:52;;;;;;;7.63;4.97;;;;;;;4.55;100.00;96856.81;5008646;28;20206;-75
2021/01/01 00:25:19;;;;;;;13.63;5.13;;;;;;;4.54;100.00;96861.31;5013805;28;20213;-75
2021/01/01 00:27:47;;;;;;;7.97;4.90;;;;;;;4.56;100.00;96861.09;5014173;28;20291;-74
2021/01/01 00:30:14;;;;;;;9.37;5.23;;;;;;;4.49;100.00;96863.69;5026662;28;20626;-73
2021/01/01 00:32:42;;;;;;;9.57;5.63;;;;;;;4.51;100.00;96859.03;5015234;28;20222;-73
2021/01/01 00:35:10;;;;;;;9.33;4.90;;;;;;;4.50;100.00;96862.69;5023497;28;20599;-73
2021/01/01 00:37:37;;;;;;;8.67;4.70;;;;;;;4.58;100.00;96854.59;5006831;28;20220;-73
2021/01/01 00:40:06;;;;;;;10.23;5.60;;;;;;;4.65;100.00;96865.22;5008564;28;20207;-75
2021/01/01 00:42:35;;;;;;;8.53;4.70;;;;;;;4.52;100.00;96868.59;5001790;28;20210;-73
2021/01/01 00:45:04;;;;;;;10.47;5.77;;;;;;;4.58;100.00;96870.47;5008035;28;20235;-76
2021/01/01 00:47:31;;;;;;;10.97;5.50;;;;;;;4.50;100.00;96870.63;4997022;28;20770;-76
2021/01/01 00:49:58;;;;;;;8.83;5.30;;;;;;;4.54;100.00;96863.13;5001303;28;20571;-75
2021/01/01 00:52:25;;;;;;;7.33;5.00;;;;;;;4.49;100.00;96866.34;5001734;28;20237;-75
2021/01/01 00:54:51;;;;;;;9.73;4.67;;;;;;;4.51;100.00;96871.41;5002403;28;20204;-74
2021/01/01 00:57:19;;;;;;;9.57;5.37;;;;;;;4.32;100.00;96880.81;5005767;28;20681;-75
2021/01/01 00:59:46;;;;;;;8.83;5.07;;;;;;;4.48;100.00;96883.16;5002875;28;20242;-75
2021/01/01 01:02:14;;;;;;;9.47;5.73;;;;;;;4.53;100.00;96886.06;5005710;28;20200;-75
2021/01/01 01:04:40;;;;;;;9.00;4.93;;;;;;;4.59;100.00;96892.41;5002802;28;20208;-74
2021/01/01 01:07:07;;;;;;;8.80;5.17;;;;;;;4.54;100.00;96889.53;5006265;28;20282;-73
2021/01/01 01:09:34;;;;;;;7.93;5.33;;;;;;;4.57;100.00;96895.25;5007262;28;20204;-74
2021/01/01 01:12:01;;;;;;;9.33;5.53;;;;;;;4.62;100.00;96887.56;5006949;28;20230;-75
2021/01/01 01:14:27;;;;;;;10.10;4.93;;;;;;;4.63;100.00;96898.97;5003281;28;20696;-74
2021/01/01 01:16:54;;;;;;;10.07;5.17;;;;;;;4.69;100.00;96899.03;5007526;28;20236;-74
2021/01/01 01:19:22;;;;;;;10.87;5.40;;;;;;;4.69;100.00;96906.94;5011728;28;20219;-75
2021/01/01 01:21:49;;;;;;;10.07;5.57;;;;;;;4.65;100.00;96910.97;5004195;28;20196;-75
2021/01/01 01:24:16;;;;;;;10.10;5.80;;;;;;;4.62;100.00;96913.97;5009089;28;20217;-74
2021/01/01 01:26:42;;;;;;;11.30;5.50;;;;;;;4.82;100.00;96919.44;5006694;28;20724;-75
2021/01/01 01:29:09;;;;;;;8.93;5.47;;;;;;;4.77;100.00;96922.66;5004103;28;21438;-74
2021/01/01 01:31:36;;;;;;;8.50;4.70;;;;;;;4.81;100.00;96926.53;5006969;28;20222;-74
2021/01/01 01:34:03;;;;;;;8.87;5.13;;;;;;;4.71;100.00;96925.22;5007812;28;20681;-74
2021/01/01 01:36:31;;;;;;;11.83;6.03;;;;;;;4.61;100.00;96927.38;5010114;28;20707;-75
2021/01/01 01:38:58;;;;;;;9.10;5.57;;;;;;;4.71;100.00;96920.78;5006482;28;20212;-74
2021/01/01 01:41:25;;;;;;;10.37;5.77;;;;;;;4.76;100.00;96931.59;5011096;28;20199;-74
2021/01/01 01:43:51;;;;;;;8.63;5.80;;;;;;;4.76;100.00;96930.75;5003640;28;20266;-74
2021/01/01 01:46:18;;;;;;;8.50;4.97;;;;;;;4.72;100.00;96929.53;5010710;28;20228;-74
2021/01/01 01:48:46;;;;;;;10.43;6.00;;;;;;;4.76;100.00;96928.94;4998211;28;20243;-73
2021/01/01 01:51:13;;;;;;;8.63;5.33;;;;;;;4.76;100.00;96928.94;5007418;28;20224;-73
2021/01/01 01:53:46;;;;;;;8.83;5.80;;;;;;;4.68;100.00;96939.63;5002327;28;20222;-74
2021/01/01 01:56:13;;;;;;;9.77;5.23;;;;;;;4.68;100.00;96939.63;5008489;28;20207;-73
2021/01/01 01:58:40;;;;;;;9.63;5.80;;;;;;;4.57;100.00;96936.72;5002101;28;20218;-74
2021/01/01 02:01:07;;;;;;;10.20;5.80;;;;;;;4.88;100.00;96937.19;5006425;28;20203;-75
2021/01/01 02:03:34;;;;;;;8.83;5.47;;;;;;;4.75;100.00;96929.13;5011002;28;20657;-74
2021/01/01 02:06:02;;;;;;;11.20;6.37;;;;;;;4.53;100.00;96943.38;5009203;28;20665;-74
2021/01/01 02:08:29;;;;;;;10.27;6.10;;;;;;;4.88;100.00;96945.09;5009449;28;20215;-74
2021/01/01 02:10:58;;;;;;;10.77;5.80;;;;;;;4.89;100.00;96947.56;5009978;28;20657;-74
2021/01/01 02:13:26;;;;;;;10.37;5.03;;;;;;;5.01;100.00;96946.03;5011489;28;20331;-74
2021/01/01 02:15:53;;;;;;;9.17;5.43;;;;;;;4.94;100.00;96961.03;5003439;28;20216;-74
2021/01/01 02:18:39;;;;;;;8.80;5.00;;;;;;;4.70;100.00;96957.94;5010349;28;20299;-75
2021/01/01 02:21:06;;;;;;;10.43;6.00;;;;;;;4.85;100.00;96961.34;5000669;28;20196;-75
2021/01/01 02:23:35;;;;;;;8.40;5.30;;;;;;;4.86;100.00;96961.16;5009405;28;20208;-74
2021/01/01 02:26:02;;;;;;;10.77;5.57;;;;;;;4.73;100.00;96961.03;5009585;28;20259;-74
2021/01/01 02:28:30;;;;;;;8.83;5.17;;;;;;;4.74;100.00;96961.84;5008806;28;20562;-74
2021/01/01 02:30:57;;;;;;;10.23;5.57;;;;;;;4.89;100.00;96954.66;5007848;28;20293;-74
2021/01/01 02:33:24;;;;;;;11.33;6.43;;;;;;;5.05;100.00;96954.38;5004680;28;20586;-75
2021/01/01 02:35:51;;;;;;;10.40;6.20;;;;;;;4.91;100.00;96955.28;5003896;28;20235;-75
2021/01/01 02:38:18;;;;;;;9.07;5.50;;;;;;;5.08;100.00;96959.31;5010727;28;20234;-74
2021/01/01 02:40:45;;;;;;;11.00;6.20;;;;;;;5.01;100.00;96963.69;5002564;28;20693;-74
2021/01/01 02:43:12;;;;;;;11.20;5.93;;;;;;;5.13;100.00;96964.81;5011412;28;20209;-74
2021/01/01 02:45:39;;;;;;;11.03;6.10;;;;;;;5.13;100.00;96962.97;5010504;28;20208;-74
2021/01/01 02:48:12;;;;;;;9.60;5.53;;;;;;;5.18;100.00;96967.72;5013275;28;20278;-75
2021/01/01 02:50:39;;;;;;;10.53;5.40;;;;;;;5.13;100.00;96973.56;5012204;28;20213;-74
2021/01/01 02:53:05;;;;;;;13.57;7.30;;;;;;;5.14;100.00;96977.84;5013518;28;20283;-74
2021/01/01 02:55:33;;;;;;;13.63;6.37;;;;;;;5.19;100.00;96979.91;5014978;28;20217;-74
2021/01/01 02:58:00;;;;;;;10.23;5.93;;;;;;;5.12;100.00;96971.13;5014429;28;20232;-74
2021/01/01 03:00:28;;;;;;;8.97;5.40;;;;;;;5.19;100.00;96972.00;5015120;28;20204;-74
2021/01/01 03:02:55;;;;;;;9.93;5.93;;;;;;;5.04;100.00;96972.09;5015132;28;20207;-74
2021/01/01 03:05:22;;;;;;;9.43;5.80;;;;;;;5.10;100.00;96975.78;5010852;28;20209;-74
2021/01/01 03:07:48;;;;;;;10.23;5.87;;;;;;;4.96;100.00;96979.31;5015451;28;20232;-75
2021/01/01 03:10:15;;;;;;;10.83;5.97;;;;;;;5.10;100.00;96975.78;5011377;28;20215;-74
2021/01/01 03:12:42;;;;;;;11.57;6.20;;;;;;;4.89;100.00;96974.00;5013060;28;20744;-75
2021/01/01 03:15:11;;;;;;;12.83;7.03;;;;;;;4.64;100.00;96975.41;5016869;28;20621;-75
2021/01/01 03:17:38;;;;;;;12.80;6.33;;;;;;;4.93;100.00;96983.16;5013178;28;20240;-74
2021/01/01 03:20:06;;;;;;;15.07;7.53;;;;;;;4.83;100.00;96977.38;5017076;28;20205;-74
2021/01/01 03:22:33;;;;;;;13.00;6.60;;;;;;;4.68;100.00;96967.91;5016108;28;20205;-75
2021/01/01 03:24:59;;;;;;;14.33;6.40;;;;;;;4.95;100.00;96975.03;5016276;28;20255;-74
2021/01/01 03:27:26;;;;;;;10.80;5.87;;;;;;;4.99;100.00;96981.59;5016088;28;20241;-75
2021/01/01 03:29:53;;;;;;;10.80;5.70;;;;;;;4.98;100.00;96980.75;5014810;28;20205;-75
2021/01/01 03:32:20;;;;;;;11.30;6.60;;;;;;;4.80;100.00;96977.78;5012387;28;20232;-74
2021/01/01 03:34:47;;;;;;;11.80;6.67;;;;;;;4.80;100.00;96971.66;5009911;28;20217;-75
2021/01/01 03:37:14;;;;;;;14.13;6.53;;;;;;;4.81;100.00;96983.84;5007969;28;20297;-74
2021/01/01 03:39:41;;;;;;;15.97;6.77;;;;;;;4.72;100.00;96980.53;5014534;28;20263;-75
2021/01/01 03:42:09;;;;;;;16.37;8.20;;;;;;;4.40;100.00;96983.69;5010405;28;20216;-74
2021/01/01 03:44:36;;;;;;;13.97;6.97;;;;;;;4.79;100.00;96986.72;5015398;28;20233;-75
2021/01/01 03:47:03;;;;;;;12.30;7.13;;;;;;;4.84;100.00;96992.25;5006202;28;20293;-74
2021/01/01 03:49:31;;;;;;;14.40;7.80;;;;;;;4.97;100.00;96980.97;5016565;28;20219;-75
2021/01/01 03:51:58;;;;;;;13.90;7.43;;;;;;;4.91;100.00;96979.06;5011777;28;20233;-74
2021/01/01 03:54:24;;;;;;;13.80;6.83;;;;;;;4.95;100.00;96983.81;5016615;28;20239;-74
2021/01/01 03:56:51;;;;;;;15.63;8.33;;;;;;;4.80;100.00;96979.59;5004993;28;20703;-74
2021/01/01 03:59:18;;;;;;;17.53;8.07;;;;;;;4.76;100.00;96983.59;5012243;28;20208;-74
2021/01/01 04:01:45;;;;;;;14.90;7.33;;;;;;;4.82;100.00;96978.41;5000484;28;20208;-74
2021/01/01 04:04:11;;;;;;;16.17;8.70;;;;;;;4.88;100.00;96980.28;5008885;28;20208;-74
2021/01/01 04:06:39;;;;;;;13.67;7.60;;;;;;;4.36;100.00;96974.50;5011491;28;20231;-74
2021/01/01 04:09:06;;;;;;;12.17;6.87;;;;;;;4.49;100.00;96974.63;5007740;28;20258;-74
2021/01/01 04:11:36;;;;;;;13.83;7.90;;;;;;;4.60;100.00;96978.59;5011944;28;20320;-74
2021/01/01 04:14:03;;;;;;;12.77;7.13;;;;;;;4.74;100.00;96977.72;5003244;28;20209;-74
2021/01/01 04:16:30;;;;;;;16.13;8.27;;;;;;;4.90;100.00;96980.09;5011217;28;20233;-74
2021/01/01 04:18:57;;;;;;;13.03;7.13;;;;;;;4.74;100.00;96981.19;5008091;28;20208;-74
2021/01/01 04:21:24;;;;;;;21.30;8.80;;;;;;;4.42;100.00;96979.03;5011467;28;20206;-74
2021/01/01 04:23:52;;;;;;;15.33;8.83;;;;;;;4.56;100.00;96982.59;5004081;28;20209;-75
2021/01/01 04:26:18;;;;;;;14.07;7.90;;;;;;;4.51;100.00;96980.53;5007433;28;21731;-74
2021/01/01 04:28:45;;;;;;;15.87;8.50;;;;;;;4.69;100.00;96977.47;5009718;28;20200;-75
2021/01/01 04:31:12;;;;;;;16.50;8.30;;;;;;;4.65;100.00;96984.13;5006709;28;20689;-74
2021/01/01 04:33:39;;;;;;;14.37;7.83;;;;;;;4.62;100.00;96992.44;5013796;28;20231;-74
2021/01/01 04:36:06;;;;;;;14.10;7.97;;;;;;;4.74;100.00;96988.28;5012715;28;20209;-74
2021/01/01 04:38:33;;;;;;;13.47;7.43;;;;;;;4.85;100.00;96988.59;5008787;28;20208;-74
2021/01/01 04:41:01;;;;;;;16.07;8.67;;;;;;;4.89;100.00;96989.84;5012782;28;20200;-75
2021/01/01 04:43:28;;;;;;;15.90;8.47;;;;;;;4.56;100.00;96987.88;5008953;28;20600;-74
2021/01/01 04:45:54;;;;;;;14.27;8.20;;;;;;;4.72;100.00;96987.66;5008617;28;20204;-74
2021/01/01 04:48:21;;;;;;;18.10;8.93;;;;;;;4.72;100.00;96988.47;4998696;28;20232;-74
2021/01/01 04:50:48;;;;;;;16.37;8.40;;;;;;;4.80;100.00;96996.28;5005227;28;20215;-74
2021/01/01 04:53:18;;;;;;;15.80;8.33;;;;;;;4.89;100.00;96999.59;5007005;28;20592;-75
2021/01/01 04:55:45;;;;;;;14.10;8.43;;;;;;;4.94;100.00;96997.22;5010903;28;20215;-74
2021/01/01 04:58:14;;;;;;;12.70;7.63;;;;;;;4.82;100.00;96993.44;5002999;28;20233;-74
2021/01/01 05:00:41;;;;;;;17.00;8.10;;;;;;;4.91;100.00;97001.03;5006338;28;20216;-74
2021/01/01 05:03:08;;;;;;;14.47;7.87;;;;;;;4.89;100.00;96999.59;5008127;28;20271;-74
2021/01/01 05:05:34;;;;;;;15.10;8.03;;;;;;;4.94;100.00;97000.69;5012037;28;20685;-75
2021/01/01 05:08:01;;;;;;;16.43;8.27;;;;;;;4.98;100.00;96998.47;5008083;28;20806;-74
2021/01/01 05:10:28;;;;;;;16.27;8.17;;;;;;;4.88;100.00;97008.53;5011322;28;20212;-74
2021/01/01 05:12:56;;;;;;;17.10;8.43;;;;;;;4.88;100.00;96997.97;5013607;28;20231;-75
2021/01/01 05:15:36;;;;;;;16.00;8.60;;;;;;;4.68;100.00;97007.53;5006938;28;20569;-75
2021/01/01 05:18:15;;;;;;;13.93;7.50;;;;;;;4.51;100.00;97001.66;5010105;28;20319;-75
2021/01/01 05:20:43;;;;;;;16.63;8.40;;;;;;;4.74;100.00;97004.97;5003349;28;20227;-75
2021/01/01 05:23:19;;;;;;;15.77;7.60;;;;;;;4.85;100.00;97007.09;5012167;28;20228;-74
2021/01/01 05:25:46;;;;;;;14.30;7.57;;;;;;;4.82;100.00;97006.66;5004242;28;20562;-74
2021/01/01 05:28:14;;;;;;;15.87;8.60;;;;;;;4.88;100.00;97011.19;5005037;28;20236;-74
2021/01/01 05:30:42;;;;;;;15.80;7.50;;;;;;;4.99;100.00;97018.59;5004331;28;20219;-74
2021/01/01 05:33:13;;;;;;;14.53;8.03;;;;;;;5.02;100.00;97018.22;5005735;28;20231;-75
2021/01/01 05:35:40;;;;;;;14.40;7.67;;;;;;;4.90;100.00;97017.09;5005959;28;20209;-74
2021/01/01 05:38:20;;;;;;;15.50;8.30;;;;;;;4.92;100.00;97023.81;5007447;28;20247;-75
2021/01/01 05:40:49;;;;;;;20.57;8.73;;;;;;;4.61;100.00;97017.22;5006810;28;20666;-74
2021/01/01 05:43:21;;;;;;;15.97;8.50;;;;;;;4.90;100.00;97023.22;5021427;28;20209;-74
2021/01/01 05:45:49;;;;;;;15.77;8.30;;;;;;;4.91;100.00;97027.47;5019896;28;20230;-74
2021/01/01 05:48:17;;;;;;;15.20;7.83;;;;;;;4.82;100.00;97031.25;5017993;28;20228;-74
2021/01/01 05:50:45;;;;;;;15.37;7.77;;;;;;;4.66;100.00;97039.44;5004273;28;20207;-73
2021/01/01 05:53:13;;;;;;;15.13;8.07;;;;;;;4.58;100.00;97041.38;5001601;28;20235;-73
2021/01/01 05:55:40;;;;;;;15.33;7.03;;;;;;;4.53;100.00;97046.41;5005619;28;20566;-73
2021/01/01 05:58:23;;;;;;;13.90;7.47;;;;;;;4.14;100.00;97049.41;5006503;28;20229;-73
2021/01/01 06:00:53;;;;;;;14.27;6.40;;;;;;;4.43;100.00;97051.16;5009398;28;20728;-73
2021/01/01 06:03:22;;;;;;;11.30;5.80;;;;;;;4.31;100.00;97056.09;5010134;28;20201;-73
2021/01/01 06:05:54;;;;;;;10.03;5.50;;;;;;;4.18;100.00;97058.59;5011103;28;20224;-74
2021/01/01 06:08:26;;;;;;;11.43;6.03;;;;;;;4.31;100.00;97058.75;5007598;28;20224;-73
2021/01/01 06:10:54;;;;;;;10.57;5.33;;;;;;;4.34;100.00;97052.28;5002193;28;20203;-73
2021/01/01 06:13:21;;;;;;;20.73;8.33;;;;;;;4.31;100.00;97055.31;5011066;28;20573;-73
2021/01/01 06:15:59;;;;;;;9.73;4.63;;;;;;;4.32;100.00;97056.94;5004527;28;20209;-73
2021/01/01 06:18:28;;;;;;;10.20;5.23;;;;;;;4.17;100.00;97064.84;5010175;28;20207;-73
2021/01/01 06:21:00;;;;;;;8.43;4.80;;;;;;;4.18;100.00;97066.50;5006010;28;20575;-73
2021/01/01 06:23:37;;;;;;;9.73;5.00;;;;;;;4.11;100.00;97072.72;5003106;28;20211;-73
2021/01/01 06:26:05;;;;;;;8.63;5.00;;;;;;;4.13;100.00;97076.81;5009591;28;20207;-73
2021/01/01 06:28:35;;;;;;;9.67;4.47;;;;;;;4.23;100.00;97085.25;5002235;28;20207;-73
2021/01/01 06:31:03;;;;;;;8.33;5.03;;;;;;;4.01;100.00;97088.00;5007952;28;20218;-73
2021/01/01 06:33:30;;;;;;;9.23;4.73;;;;;;;4.04;100.00;97087.63;5007766;28;20569;-73
2021/01/01 06:35:57;;;;;;;7.43;4.90;;;;;;;4.12;100.00;97087.53;4997433;28;20209;-72
2021/01/01 06:38:38;;;;;;;7.00;4.27;;;;;;;3.84;100.00;97097.91;5011363;28;20227;-73
2021/01/01 06:41:10;;;;;;;11.00;4.70;;;;;;;3.95;100.00;97094.00;5004092;28;20561;-73
2021/01/01 06:43:51;;;;;;;8.30;4.40;;;;;;;4.00;100.00;97094.25;5005704;28;20208;-73
2021/01/01 06:46:36;;;;;;;9.53;4.83;;;;;;;4.06;100.00;97102.28;5011301;28;20719;-73
2021/01/01 06:49:04;;;;;;;8.50;5.00;;;;;;;3.92;100.00;97105.72;5002826;28;20197;-73
2021/01/01 06:51:31;;;;;;;8.73;4.73;;;;;;;4.00;100.00;97115.38;5002680;28;20203;-73
2021/01/01 06:54:11;;;;;;;6.93;4.07;;;;;;;3.95;100.00;97115.09;5011696;28;20203;-73
2021/01/01 06:56:40;;;;;;;7.13;3.97;;;;;;;4.09;100.00;97117.78;5008714;28;20227;-73
2021/01/01 06:59:11;;;;;;;8.90;4.40;;;;;;;4.11;100.00;97123.66;5003848;28;20217;-73
2021/01/01 07:01:43;;;;;;;6.57;4.10;;;;;;;4.11;100.00;97117.59;5005128;28;20285;-73
2021/01/01 07:04:10;;;;;;;9.10;4.80;;;;;;;3.99;100.00;97121.66;5011696;28;20203;-73
2021/01/01 07:06:41;;;;;;;7.83;4.43;;;;;;;4.16;100.00;97129.22;5009800;28;20231;-74
2021/01/01 07:09:09;;;;;;;7.43;4.30;;;;;;;4.18;100.00;97121.97;5008412;28;20262;-73
2021/01/01 07:11:38;;;;;;;8.57;4.63;;;;;;;3.83;100.00;97124.47;5009013;28;20237;-74
2021/01/01 07:14:06;;;;;;;9.83;4.20;;;;;;;3.87;100.00;97136.31;4996063;28;20208;-74
2021/01/01 07:16:35;;;;;;;7.20;4.07;;;;;;;4.14;100.00;97125.13;4999016;28;20234;-74
2021/01/01 07:19:04;;;;;;;7.50;4.33;;;;;;;3.76;100.00;97132.28;5002368;28;20258;-74
2021/01/01 07:21:30;;;;;;;8.67;4.50;;;;;;;4.01;100.00;97135.53;5010864;28;20216;-73
2021/01/01 07:23:58;;;;;;;8.57;4.60;;;;;;;4.04;100.00;97141.25;4998679;28;20200;-73
2021/01/01 07:26:30;;;;;;;5.90;3.67;;;;;;;3.96;100.00;97143.16;5004190;28;20227;-73
2021/01/01 07:28:58;;;;;;;7.77;4.13;;;;;;;3.84;100.00;97152.50;5004752;28;20662;-73
2021/01/01 07:31:25;;;;;;;7.43;4.03;;;;;;;3.90;100.00;97149.97;5004703;28;20216;-74
2021/01/01 07:33:52;;;;;;;7.80;4.00;;;;;;;4.07;100.00;97158.53;5003451;28;20683;-73
2021/01/01 07:36:20;;;;;;;8.53;4.37;;;;;;;4.04;100.00;97151.81;5009179;28;20585;-74
2021/01/01 07:38:48;;;;;;;8.23;4.43;;;;;;;4.16;100.00;97160.91;5009979;28;20206;-73
2021/01/01 07:41:16;;;;;;;8.37;4.30;;;;;;;4.09;100.00;97157.38;5009987;28;20211;-74
2021/01/01 07:43:43;;;;;;;8.83;4.77;;;;;;;4.09;100.00;97159.16;5001785;28;20225;-74
2021/01/01 07:46:11;;;;;;;8.57;4.40;;;;;;;4.14;100.00;97162.91;5008917;28;20202;-75
2021/01/01 07:48:39;;;;;;;8.53;4.43;;;;;;;4.13;100.00;97163.94;5014504;28;20216;-74
2021/01/01 07:51:07;;;;;;;6.70;3.97;;;;;;;4.35;100.00;97170.94;5013918;28;20203;-74
2021/01/01 07:53:35;;;;;;;7.83;4.43;;;;;;;4.23;100.00;97163.66;5004415;28;20290;-74
2021/01/01 07:56:04;;;;;;;6.23;3.80;;;;;;;4.41;100.00;97164.09;5012776;28;20204;-74
2021/01/01 07:58:31;;;;;;;5.60;3.50;;;;;;;4.51;100.00;97175.19;4998955;28;20232;-74
2021/01/01 08:01:03;;;;;;;7.37;4.27;;;;;;;4.57;100.00;97172.63;5011136;28;20257;-73
2021/01/01 08:03:32;;;;;;;6.40;3.90;;;;;;;4.75;100.00;97178.38;5015468;28;20203;-75
2021/01/01 08:06:00;;;;;;;5.73;3.20;;;;;;;4.54;100.00;97183.59;5012520;28;20201;-74
2021/01/01 08:08:27;;;;;;;5.37;2.90;;;;;;;4.70;100.00;97178.09;5013785;28;20204;-74
2021/01/01 08:10:56;;;;;;;5.40;3.13;;;;;;;4.74;100.00;97176.75;5008166;28;20209;-75
2021/01/01 08:13:24;;;;;;;7.83;3.60;;;;;;;4.69;100.00;97178.28;5002932;28;20232;-74
2021/01/01 08:15:53;;;;;;;5.20;3.13;;;;;;;4.49;100.00;97191.25;5005953;28;20212;-74
2021/01/01 08:18:21;;;;;;;6.87;3.93;;;;;;;4.55;100.00;97181.75;5013592;28;20238;-76
2021/01/01 08:20:49;;;;;;;5.77;3.60;;;;;;;4.66;100.00;97184.75;5011337;28;20200;-74
2021/01/01 08:23:17;;;;;;;5.60;3.40;;;;;;;4.55;100.00;97198.44;5006178;28;20205;-74
2021/01/01 08:25:45;;;;;;;6.60;3.30;;;;;;;4.54;100.00;97202.09;5010828;28;20661;-75
2021/01/01 08:28:16;;;;;;;8.73;3.47;;;;;;;4.49;100.00;97208.91;5013514;28;20234;-75
2021/01/01 08:30:44;;;;;;;6.83;3.37;;;;;;;4.31;100.00;97203.97;5008089;28;20266;-74
2021/01/01 08:33:11;;;;;;;5.53;3.20;;;;;;;4.73;100.00;97201.50;5004848;28;20614;-75
2021/01/01 08:35:38;;;;;;;6.83;3.30;;;;;;;4.95;100.00;97205.84;5005040;28;20330;-74
2021/01/01 08:38:18;;;;;;;4.93;3.07;;;;;;;4.91;100.00;97209.03;5006850;28;20801;-74
2021/01/01 08:40:45;;;;;;;4.03;2.60;;;;;;;4.84;100.00;97214.28;5012604;28;20200;-74
2021/01/01 08:43:13;;;;;;;8.00;3.57;;;;;;;4.94;100.00;97225.38;5010728;28;20215;-74
2021/01/01 08:45:40;;;;;;;5.00;3.00;;;;;;;4.98;100.00;97220.53;5011685;28;20267;-74
2021/01/01 08:48:11;;;;;;;4.83;3.17;;;;;;;4.91;100.00;97222.25;5009850;28;20705;-74
2021/01/01 08:50:44;;;;;;;4.43;2.50;;;;;;;4.93;100.00;97228.19;5012634;28;20205;-75
2021/01/01 08:53:11;;;;;;;3.70;2.37;;;;;;;5.09;100.00;97223.53;5006241;28;20235;-74
2021/01/01 08:55:39;;;;;;;3.67;2.27;;;;;;;4.77;100.00;97229.22;5008842;28;20217;-74
2021/01/01 08:58:07;;;;;;;6.07;2.67;;;;;;;5.12;100.00;97217.84;5012707;28;20708;-74
2021/01/01 09:00:35;;;;;;;4.57;2.97;;;;;;;5.00;100.00;97240.50;5009868;28;20649;-77
2021/01/01 09:03:03;;;;;;;4.37;2.40;;;;;;;4.85;100.00;97231.75;5010387;28;20666;-81
2021/01/01 09:05:31;;;;;;;4.47;2.50;;;;;;;5.10;100.00;97242.84;5014403;28;20212;-80
2021/01/01 09:08:11;;;;;;;4.20;2.50;;;;;;;5.01;100.00;97230.72;5015176;28;20233;-77
2021/01/01 09:10:39;;;;;;;4.07;2.47;;;;;;;4.74;100.00;97244.63;5012302;28;20224;-79
2021/01/01 09:13:16;;;;;;;3.60;2.33;;;;;;;4.35;100.00;97244.88;5015981;28;20242;-76
2021/01/01 09:15:44;;;;;;;8.37;2.63;;;;;;;7.36;100.00;97223.59;5014385;28;20207;-78
2021/01/01 09:18:12;;;;;;;10.63;3.43;;;;;;;9.94;100.00;97215.28;5009641;28;20253;-75
2021/01/01 09:20:42;;;;;;;7.63;3.53;;;;;;;10.22;100.00;97211.44;5011614;28;20221;-78
2021/01/01 09:23:10;;;;;;;6.20;3.17;;;;;;;10.02;100.00;97217.72;5014212;28;20207;-76
2021/01/01 09:25:38;;;;;;;5.67;3.57;;;;;;;9.57;100.00;97223.31;5008017;28;20218;-80
2021/01/01 09:28:05;;;;;;;5.33;2.80;;;;;;;9.01;100.00;97225.00;5009410;28;20281;-76
2021/01/01 09:30:35;;;;;;;4.57;2.80;;;;;;;10.30;100.00;97222.66;5000356;28;20211;-77
2021/01/01 09:33:06;;;;;;;5.40;2.33;;;;;;;10.82;100.00;97225.63;5012788;28;20943;-74
2021/01/01 09:35:33;;;;;;;5.83;3.07;;;;;;;10.40;100.00;97230.97;5010578;28;20235;-78
2021/01/01 09:38:01;;;;;;;3.07;2.00;;;;;;;9.29;100.00;97239.63;5012699;28;20231;-76
2021/01/01 09:40:29;;;;;;;3.20;2.30;;;;;;;9.26;100.00;97237.41;5012357;28;20219;-77
2021/01/01 09:42:57;;;;;;;3.47;1.93;;;;;;;10.09;100.00;97245.16;5015745;28;20211;-78
2021/01/01 09:45:24;;;;;;;3.47;2.27;;;;;;;8.98;100.00;97246.72;5024399;28;20304;-82
2021/01/01 09:47:51;;;;;;;2.90;2.00;;;;;;;10.24;100.00;97239.53;5018813;28;20313;-83
2021/01/01 09:50:19;;;;;;;4.80;2.50;;;;;;;9.95;100.00;97246.22;5009589;28;20212;-81
2021/01/01 09:52:46;;;;;;;2.47;1.70;;;;;;;8.69;100.00;97261.34;5012551;28;20227;-85
2021/01/01 09:55:13;;;;;;;6.10;2.53;;;;;;;9.86;100.00;97244.06;5015921;28;20367;-83
2021/01/01 09:57:42;;;;;;;4.03;2.27;;;;;;;9.63;100.00;97246.44;5018217;28;20237;-77
2021/01/01 10:00:11;;;;;;;6.33;3.17;;;;;;;10.63;100.00;97248.00;5011993;28;20206;-83
2021/01/01 10:02:38;;;;;;;5.77;2.47;;;;;;;8.49;100.00;97263.19;5007608;28;20199;-76
2021/01/01 10:05:06;;;;;;;2.50;1.53;;;;;;;7.49;100.00;97260.78;5005615;28;20593;-76
2021/01/01 10:07:34;;;;;;;9.53;2.43;;;;;;;8.42;100.00;97264.22;5003644;28;20230;-76
2021/01/01 10:10:01;;;;;;;6.70;2.10;;;;;;;8.09;100.00;97260.69;5005926;28;20203;-77
2021/01/01 10:12:28;;;;;;;5.77;2.40;;;;;;;8.20;100.00;97254.78;5007790;28;20230;-74
2021/01/01 10:14:55;;;;;;;2.77;1.90;;;;;;;7.39;100.00;97266.47;5003872;28;20603;-79
2021/01/01 10:17:22;;;;;;;4.53;2.20;;;;;;;9.78;100.00;97254.97;5005969;28;20734;-74
2021/01/01 10:19:50;;;;;;;11.03;2.90;;;;;;;9.98;100.00;97256.47;5000545;28;20207;-75
2021/01/01 10:22:17;;;;;;;4.97;2.60;;;;;;;9.03;100.00;97262.91;5003320;28;20199;-74
2021/01/01 10:24:45;;;;;;;3.77;2.23;;;;;;;8.17;100.00;97269.28;5005579;28;20718;-80
2021/01/01 10:27:12;;;;;;;2.60;1.90;;;;;;;7.91;100.00;97269.25;5011385;28;20231;-78
2021/01/01 10:29:39;;;;;;;2.53;1.67;;;;;;;7.99;100.00;97263.75;5011823;28;20257;-78
2021/01/01 10:32:07;;;;;;;2.93;1.93;;;;;;;8.09;100.00;97268.66;5010271;28;20211;-75
2021/01/01 10:34:34;;;;;;;5.80;2.40;;;;;;;8.58;100.00;97261.13;5008317;28;20290;-70
2021/01/01 10:37:01;;;;;;;7.00;2.13;;;;;;;9.48;100.00;97251.25;5006685;28;20318;-72
2021/01/01 10:39:28;;;;;;;6.50;2.33;;;;;;;10.85;100.00;97240.41;5011496;28;20581;-76
2021/01/01 10:41:56;;;;;;;4.10;2.00;;;;;;;8.87;100.00;97258.00;5011373;28;20199;-73
2021/01/01 10:44:23;;;;;;;6.23;2.27;;;;;;;9.79;100.00;97241.44;5002994;28;20203;-76
2021/01/01 10:46:52;;;;;;;4.70;2.37;;;;;;;9.00;100.00;97253.47;5009576;28;20280;-77
2021/01/01 10:49:19;;;;;;;2.00;1.77;;;;;;;8.88;100.00;97262.31;5014980;28;20286;-80
2021/01/01 10:51:46;;;;;;;3.00;1.50;;;;;;;8.42;100.00;97254.38;5013946;28;20210;-82
2021/01/01 10:54:13;;;;;;;4.57;2.00;;;;;;;9.34;100.00;97250.47;5010232;28;20218;-82
2021/01/01 10:56:40;;;;;;;2.77;1.80;;;;;;;8.93;100.00;97257.19;5013493;28;20250;-80
2021/01/01 10:59:07;;;;;;;6.63;2.70;;;;;;;10.02;100.00;97239.03;5001808;28;20740;-83
2021/01/01 11:01:34;;;;;;;4.23;2.10;;;;;;;9.65;100.00;97242.53;5014512;28;20278;-81
2021/01/01 11:04:01;;;;;;;7.30;2.40;;;;;;;10.76;100.00;97237.16;5011142;28;20274;-79
2021/01/01 11:06:28;;;;;;;3.33;2.10;;;;;;;10.41;100.00;97245.94;5012435;28;20225;-79
2021/01/01 11:08:55;;;;;;;4.37;1.93;;;;;;;10.66;100.00;97246.75;5013347;28;20670;-77
2021/01/01 11:11:23;;;;;;;2.87;1.80;;;;;;;10.47;100.00;97239.72;5016931;28;20211;-80
2021/01/01 11:13:51;;;;;;;2.90;1.90;;;;;;;10.93;100.00;97241.97;5010937;28;20249;-85
2021/01/01 12:22:38;;;;;;;3.37;2.27;;;;;;;5.79;100.00;97223.63;5006263;28;20668;-75
2021/01/01 12:25:06;;;;;;;3.20;1.90;;;;;;;6.04;100.00;97219.59;5007481;28;20689;-75
2021/01/01 12:27:35;;;;;;;2.73;2.00;;;;;;;5.54;100.00;97225.03;5004642;28;20238;-74
2021/01/01 12:30:04;;;;;;;4.57;2.30;;;;;;;5.53;100.00;97221.53;5005392;28;20252;-75
2021/01/01 12:32:32;;;;;;;3.23;2.07;;;;;;;5.44;100.00;97211.28;5013215;28;20700;-75
2021/01/01 12:34:59;;;;;;;2.90;1.93;;;;;;;5.84;100.00;97208.84;5012843;28;20233;-74
2021/01/01 12:37:26;;;;;;;4.60;2.40;;;;;;;5.87;100.00;97216.41;5007641;28;20233;-77
2021/01/01 12:39:53;;;;;;;4.57;2.80;;;;;;;5.53;100.00;97218.91;5003891;28;20207;-77